Time;durP1;ratioP1;P1;durP2;ratioP2;P2;SDS_P1;SDS_P2;PMS_P1;PMS_P2;Temp;Humidity;BMP_temperature;BMP_pressure;BME280_temperature;BME280_humidity;BME280_pressure;Samples;Min_cycle;Max_cycle;Signal;HPM_P1;HPM_P2
2023/03/14 00:04:05;;;;;;;15.95;7.18;;;;;;;;;;10491979;28;20036;-75
2023/03/14 00:09:26;;;;;;;24.33;8.00;;;;;;;;;;10492302;28;20035;-74
2023/03/14 00:14:47;;;;;;;12.93;6.07;;;;;;;;;;10494106;28;20464;-74
2023/03/14 00:20:09;;;;;;;11.00;5.47;;;;;;;;;;10514577;28;20039;-75
2023/03/14 00:25:30;;;;;;;21.58;6.60;;;;;;;;;;10503537;28;20066;-74
2023/03/14 00:30:50;;;;;;;21.02;7.63;;;;;;;;;;10515100;28;20033;-74
2023/03/14 00:36:13;;;;;;;22.42;8.05;;;;;;;;;;10479282;28;20048;-75
2023/03/14 00:41:33;;;;;;;21.60;8.10;;;;;;;;;;10468311;28;20033;-74
2023/03/14 00:46:55;;;;;;;18.35;6.88;;;;;;;;;;10513498;27;20520;-75
2023/03/14 00:52:15;;;;;;;21.75;7.40;;;;;;;;;;10490278;28;20044;-75
2023/03/14 00:57:36;;;;;;;21.58;7.80;;;;;;;;;;10497942;28;20598;-75
2023/03/14 01:02:57;;;;;;;20.58;7.70;;;;;;;;;;10490877;28;20032;-75
2023/03/14 01:08:18;;;;;;;14.88;5.80;;;;;;;;;;10518038;28;20032;-76
2023/03/14 01:13:39;;;;;;;28.05;8.98;;;;;;;;;;10497716;28;20028;-75
2023/03/14 01:19:01;;;;;;;26.20;8.45;;;;;;;;;;10481555;28;20043;-74
2023/03/14 01:24:21;;;;;;;25.38;8.48;;;;;;;;;;10491820;28;20036;-74
2023/03/14 01:29:42;;;;;;;22.45;7.30;;;;;;;;;;10497711;28;20051;-75
2023/03/14 01:35:04;;;;;;;13.27;6.53;;;;;;;;;;10479702;28;20032;-74
2023/03/14 01:40:24;;;;;;;16.45;6.18;;;;;;;;;;10515641;28;20051;-75
2023/03/14 01:45:58;;;;;;;17.23;6.75;;;;;;;;;;10517150;28;20035;-75
2023/03/14 01:51:30;;;;;;;8.70;5.45;;;;;;;;;;10509546;28;20519;-75
2023/03/14 01:56:54;;;;;;;17.85;6.75;;;;;;;;;;10511470;28;20033;-75
2023/03/14 02:02:16;;;;;;;14.15;6.30;;;;;;;;;;10503611;28;20587;-76
2023/03/14 02:07:45;;;;;;;21.77;7.68;;;;;;;;;;10511911;28;20059;-75
2023/03/14 02:13:06;;;;;;;24.48;6.82;;;;;;;;;;10518218;27;20500;-76
2023/03/14 02:18:27;;;;;;;27.50;8.73;;;;;;;;;;10485565;28;20045;-76
2023/03/14 02:24:17;;;;;;;18.67;6.30;;;;;;;;;;10491190;28;20044;-76
2023/03/14 02:29:45;;;;;;;19.88;7.57;;;;;;;;;;10474873;28;20040;-76
2023/03/14 02:35:08;;;;;;;27.83;9.07;;;;;;;;;;10474842;28;20397;-76
2023/03/14 02:40:29;;;;;;;23.13;7.90;;;;;;;;;;10482248;28;20028;-76
2023/03/14 02:45:51;;;;;;;33.67;10.57;;;;;;;;;;10492855;28;20044;-75
2023/03/14 02:51:12;;;;;;;31.42;8.65;;;;;;;;;;10477568;28;20063;-76
2023/03/14 02:56:33;;;;;;;20.92;7.47;;;;;;;;;;10490209;28;20043;-76
2023/03/14 03:01:54;;;;;;;33.65;9.50;;;;;;;;;;10488852;28;20068;-76
2023/03/14 03:07:15;;;;;;;26.35;8.57;;;;;;;;;;10487053;28;20044;-76
2023/03/14 03:12:35;;;;;;;18.27;6.47;;;;;;;;;;10493646;28;20039;-76
2023/03/14 03:17:56;;;;;;;23.60;8.25;;;;;;;;;;10511922;28;20031;-76
2023/03/14 03:23:17;;;;;;;26.45;9.18;;;;;;;;;;10482194;28;20041;-76
2023/03/14 03:28:38;;;;;;;28.27;8.88;;;;;;;;;;10449288;28;20533;-76
2023/03/14 03:33:59;;;;;;;18.50;6.45;;;;;;;;;;10496455;28;20047;-73
2023/03/14 03:39:20;;;;;;;14.85;5.82;;;;;;;;;;10501218;28;20046;-73
2023/03/14 03:44:41;;;;;;;13.82;6.35;;;;;;;;;;10514111;28;20040;-74
2023/03/14 03:50:02;;;;;;;11.05;5.22;;;;;;;;;;10542967;28;20032;-74
2023/03/14 03:55:23;;;;;;;14.50;5.80;;;;;;;;;;10476681;28;20052;-74
2023/03/14 04:00:44;;;;;;;22.10;8.15;;;;;;;;;;10470262;28;20068;-74
2023/03/14 04:06:06;;;;;;;12.50;5.88;;;;;;;;;;10485584;28;20501;-74
2023/03/14 04:11:26;;;;;;;22.17;8.13;;;;;;;;;;10487555;28;20036;-74
2023/03/14 04:16:47;;;;;;;19.35;7.43;;;;;;;;;;10476004;28;20027;-74
2023/03/14 04:22:08;;;;;;;30.08;8.60;;;;;;;;;;10473758;28;20052;-74
2023/03/14 04:27:29;;;;;;;19.55;7.47;;;;;;;;;;10474945;28;20044;-74
2023/03/14 04:32:50;;;;;;;25.58;8.63;;;;;;;;;;10493822;28;20598;-74
2023/03/14 04:38:11;;;;;;;24.02;7.78;;;;;;;;;;10491244;28;20032;-74
2023/03/14 04:43:33;;;;;;;18.17;7.75;;;;;;;;;;10487137;28;20049;-74
2023/03/14 04:48:55;;;;;;;23.13;8.38;;;;;;;;;;10469142;28;20064;-74
2023/03/14 04:54:17;;;;;;;21.23;7.95;;;;;;;;;;10486773;28;20036;-74
2023/03/14 04:59:38;;;;;;;16.95;7.03;;;;;;;;;;10486465;28;20412;-74
2023/03/14 05:04:59;;;;;;;18.52;7.15;;;;;;;;;;10493596;28;20071;-74
2023/03/14 05:10:19;;;;;;;14.35;6.65;;;;;;;;;;10503584;28;20044;-75
2023/03/14 05:15:40;;;;;;;21.13;8.43;;;;;;;;;;10487932;28;20106;-74
2023/03/14 05:21:02;;;;;;;15.80;6.63;;;;;;;;;;10484448;28;20040;-74
2023/03/14 05:26:23;;;;;;;24.85;8.75;;;;;;;;;;10459645;28;20517;-75
2023/03/14 05:31:44;;;;;;;16.10;7.63;;;;;;;;;;10496848;28;20401;-75
2023/03/14 05:37:05;;;;;;;16.55;7.40;;;;;;;;;;10512032;28;20035;-75
2023/03/14 05:42:25;;;;;;;17.73;7.78;;;;;;;;;;10496613;28;20036;-75
2023/03/14 05:47:46;;;;;;;13.68;7.10;;;;;;;;;;10501320;28;20036;-75
2023/03/14 05:53:07;;;;;;;21.20;8.43;;;;;;;;;;10503079;28;20493;-75
2023/03/14 05:58:28;;;;;;;19.90;8.25;;;;;;;;;;10534922;28;20043;-75
2023/03/14 06:03:49;;;;;;;16.50;7.03;;;;;;;;;;10514838;28;20040;-76
2023/03/14 06:09:10;;;;;;;13.52;7.13;;;;;;;;;;10504200;27;20048;-75
2023/03/14 06:14:31;;;;;;;17.10;8.13;;;;;;;;;;10500646;28;20753;-76
2023/03/14 06:19:52;;;;;;;26.75;10.23;;;;;;;;;;10515945;27;20497;-76
2023/03/14 06:25:13;;;;;;;22.13;8.57;;;;;;;;;;10479929;28;20039;-74
2023/03/14 06:30:34;;;;;;;22.80;9.05;;;;;;;;;;10469425;28;21410;-74
2023/03/14 06:35:55;;;;;;;21.08;8.63;;;;;;;;;;10487564;28;20047;-74
2023/03/14 06:41:16;;;;;;;25.85;9.15;;;;;;;;;;10497610;28;20527;-74
2023/03/14 06:46:37;;;;;;;24.98;9.38;;;;;;;;;;10508592;28;20044;-74
2023/03/14 06:51:58;;;;;;;20.27;8.00;;;;;;;;;;10490888;28;20047;-74
2023/03/14 06:57:19;;;;;;;25.70;10.43;;;;;;;;;;10504561;28;20029;-74
2023/03/14 07:02:40;;;;;;;23.92;10.13;;;;;;;;;;10494576;28;20032;-74
2023/03/14 07:08:00;;;;;;;20.10;9.07;;;;;;;;;;10515612;28;20040;-74
2023/03/14 07:13:21;;;;;;;19.13;8.68;;;;;;;;;;10489688;28;20036;-75
2023/03/14 07:18:42;;;;;;;20.95;9.48;;;;;;;;;;10501959;28;20365;-75
2023/03/14 07:24:03;;;;;;;29.45;11.45;;;;;;;;;;10472111;28;20044;-76
2023/03/14 07:29:24;;;;;;;10.30;6.72;;;;;;;;;;10487082;28;20482;-77
2023/03/14 07:34:45;;;;;;;17.45;7.35;;;;;;;;;;10507383;27;20036;-79
2023/03/14 07:40:07;;;;;;;12.27;6.40;;;;;;;;;;10488975;28;20519;-77
2023/03/14 07:45:27;;;;;;;16.75;7.82;;;;;;;;;;10466033;28;20039;-75
2023/03/14 07:50:49;;;;;;;55.50;16.02;;;;;;;;;;10483644;28;20095;-77
2023/03/14 07:56:10;;;;;;;20.85;8.13;;;;;;;;;;10470082;28;20063;-75
2023/03/14 08:01:31;;;;;;;16.23;7.72;;;;;;;;;;10483194;28;20031;-76
2023/03/14 08:06:54;;;;;;;14.90;7.63;;;;;;;;;;10482915;28;20042;-76
2023/03/14 08:12:16;;;;;;;18.58;8.15;;;;;;;;;;10493984;28;20595;-75
2023/03/14 08:17:37;;;;;;;22.42;9.05;;;;;;;;;;10493639;28;20614;-78
2023/03/14 08:22:58;;;;;;;13.18;7.18;;;;;;;;;;10506163;28;20039;-77
2023/03/14 08:28:19;;;;;;;14.05;7.47;;;;;;;;;;10492956;28;20964;-75
2023/03/14 08:33:40;;;;;;;12.95;6.43;;;;;;;;;;10491650;28;20501;-76
2023/03/14 08:39:03;;;;;;;19.70;7.95;;;;;;;;;;10475961;28;20043;-75
2023/03/14 08:44:24;;;;;;;18.77;7.80;;;;;;;;;;10498775;28;20028;-75
2023/03/14 08:49:45;;;;;;;9.60;6.05;;;;;;;;;;10494863;28;20413;-78
2023/03/14 08:55:07;;;;;;;12.32;6.25;;;;;;;;;;10493473;28;20048;-73
2023/03/14 09:00:28;;;;;;;14.02;6.65;;;;;;;;;;10494804;28;20481;-77
2023/03/14 09:05:49;;;;;;;12.45;5.95;;;;;;;;;;10496072;28;20638;-79
2023/03/14 09:11:10;;;;;;;9.82;5.63;;;;;;;;;;10514633;28;20401;-75
2023/03/14 09:16:33;;;;;;;11.93;6.55;;;;;;;;;;10483112;28;20039;-77
2023/03/14 09:21:54;;;;;;;21.00;9.35;;;;;;;;;;10506475;28;20416;-82
2023/03/14 09:27:15;;;;;;;8.07;5.28;;;;;;;;;;10516434;28;20040;-81
2023/03/14 09:32:36;;;;;;;7.63;5.25;;;;;;;;;;10498270;28;20036;-81
2023/03/14 09:37:57;;;;;;;11.32;6.47;;;;;;;;;;10512464;28;20047;-81
2023/03/14 09:43:18;;;;;;;8.70;5.30;;;;;;;;;;10510605;28;20500;-81
2023/03/14 09:48:40;;;;;;;7.57;5.95;;;;;;;;;;10512656;28;20036;-81
2023/03/14 09:54:01;;;;;;;9.48;6.20;;;;;;;;;;10509257;28;20047;-82
2023/03/14 09:59:22;;;;;;;15.40;7.18;;;;;;;;;;10504935;28;20039;-82
2023/03/14 10:04:44;;;;;;;14.00;6.25;;;;;;;;;;10526699;28;20032;-81
2023/03/14 10:10:10;;;;;;;11.43;6.03;;;;;;;;;;10516059;28;20039;-82
2023/03/14 10:15:32;;;;;;;10.23;5.03;;;;;;;;;;10496211;28;20409;-82
2023/03/14 10:21:02;;;;;;;18.60;7.60;;;;;;;;;;10503219;28;20044;-81
2023/03/14 10:26:26;;;;;;;11.70;5.97;;;;;;;;;;10500774;28;20035;-81
2023/03/14 10:31:47;;;;;;;12.63;6.55;;;;;;;;;;10491373;28;20033;-81
2023/03/14 10:37:16;;;;;;;15.70;7.07;;;;;;;;;;10520865;27;20039;-81
2023/03/14 10:42:44;;;;;;;17.30;6.70;;;;;;;;;;10513917;28;20489;-81
2023/03/14 10:48:07;;;;;;;23.95;8.40;;;;;;;;;;10489059;28;20044;-75
2023/03/14 10:53:32;;;;;;;24.17;7.82;;;;;;;;;;10481506;28;20052;-76
2023/03/14 10:58:56;;;;;;;24.77;7.15;;;;;;;;;;10499434;28;20497;-76
2023/03/14 11:04:36;;;;;;;17.65;7.50;;;;;;;;;;10504435;28;20020;-76
2023/03/14 11:10:20;;;;;;;25.38;8.15;;;;;;;;;;10514142;28;20059;-76
2023/03/14 11:15:46;;;;;;;18.95;7.15;;;;;;;;;;10506517;28;20024;-76
2023/03/14 11:21:08;;;;;;;28.33;9.00;;;;;;;;;;10481816;28;20047;-76
2023/03/14 11:26:37;;;;;;;16.17;6.65;;;;;;;;;;10498227;28;20044;-75
2023/03/14 11:32:00;;;;;;;13.48;6.07;;;;;;;;;;10504910;28;20055;-76
2023/03/14 11:37:35;;;;;;;16.73;6.28;;;;;;;;;;10522646;28;20036;-76
2023/03/14 11:43:15;;;;;;;17.63;7.15;;;;;;;;;;10526742;28;20036;-76
2023/03/14 11:48:35;;;;;;;23.50;7.32;;;;;;;;;;10514451;28;20489;-76
2023/03/14 11:54:02;;;;;;;20.92;6.38;;;;;;;;;;10501987;28;20056;-77
2023/03/14 11:59:42;;;;;;;15.95;6.97;;;;;;;;;;10532513;28;20028;-77
2023/03/14 12:05:22;;;;;;;21.55;6.93;;;;;;;;;;10518128;28;20051;-76
2023/03/14 12:10:52;;;;;;;24.60;8.55;;;;;;;;;;10481465;28;20040;-76
2023/03/14 12:16:39;;;;;;;17.30;6.15;;;;;;;;;;10519740;28;20036;-76
2023/03/14 12:22:00;;;;;;;25.23;7.57;;;;;;;;;;10525709;28;20496;-76
2023/03/14 12:27:39;;;;;;;21.52;6.30;;;;;;;;;;10538328;28;20037;-76
2023/03/14 12:33:10;;;;;;;17.00;6.43;;;;;;;;;;10485831;28;20033;-76
2023/03/14 12:38:43;;;;;;;21.80;6.70;;;;;;;;;;10491258;28;20028;-76
2023/03/14 12:44:22;;;;;;;13.77;6.60;;;;;;;;;;10504031;28;20052;-76
2023/03/14 12:49:48;;;;;;;15.88;6.55;;;;;;;;;;10491254;28;20485;-76
2023/03/14 12:55:17;;;;;;;24.85;6.65;;;;;;;;;;10549896;28;20048;-76
2023/03/14 13:00:40;;;;;;;11.82;5.90;;;;;;;;;;10575128;28;20043;-77
2023/03/14 13:06:04;;;;;;;13.60;5.95;;;;;;;;;;10575474;28;20042;-77
2023/03/14 13:11:25;;;;;;;12.85;5.65;;;;;;;;;;10475723;28;20044;-77
2023/03/14 13:16:49;;;;;;;12.10;6.00;;;;;;;;;;10522816;28;20511;-77
2023/03/14 13:22:17;;;;;;;10.32;5.85;;;;;;;;;;10534358;28;20391;-77
2023/03/14 13:27:38;;;;;;;15.25;5.95;;;;;;;;;;10518197;28;20044;-77
2023/03/14 13:33:02;;;;;;;12.15;5.60;;;;;;;;;;10515401;28;20032;-77
2023/03/14 13:38:25;;;;;;;16.13;5.43;;;;;;;;;;10538749;28;20485;-77
2023/03/14 13:43:46;;;;;;;15.95;6.40;;;;;;;;;;10482807;28;20070;-77
2023/03/14 13:49:10;;;;;;;13.88;6.43;;;;;;;;;;10496952;28;20043;-77
2023/03/14 13:54:31;;;;;;;8.35;5.18;;;;;;;;;;10535091;28;20043;-78
2023/03/14 14:00:06;;;;;;;10.07;4.57;;;;;;;;;;10565244;28;20058;-78
2023/03/14 14:05:28;;;;;;;10.90;5.22;;;;;;;;;;10491837;28;20029;-77
2023/03/14 14:10:49;;;;;;;10.63;5.13;;;;;;;;;;10491668;28;20040;-78
2023/03/14 14:16:10;;;;;;;9.15;4.63;;;;;;;;;;10523127;28;20505;-77
2023/03/14 14:21:31;;;;;;;13.68;5.72;;;;;;;;;;10511398;28;20518;-78
2023/03/14 14:26:53;;;;;;;11.90;5.60;;;;;;;;;;10550329;28;20032;-78
2023/03/14 14:32:14;;;;;;;13.70;5.32;;;;;;;;;;10555604;28;20401;-78
2023/03/14 14:37:41;;;;;;;7.82;5.15;;;;;;;;;;10518010;28;20086;-78
2023/03/14 14:43:03;;;;;;;10.40;5.65;;;;;;;;;;10500197;28;20036;-77
2023/03/14 14:48:27;;;;;;;20.77;7.30;;;;;;;;;;10491755;28;20033;-77
2023/03/14 14:53:48;;;;;;;30.85;9.63;;;;;;;;;;10491721;28;20112;-77
2023/03/14 14:59:20;;;;;;;24.58;7.95;;;;;;;;;;10486722;28;20106;-77
2023/03/14 15:04:41;;;;;;;16.17;5.55;;;;;;;;;;10524870;27;20511;-77
2023/03/14 15:10:02;;;;;;;14.38;6.72;;;;;;;;;;10509647;28;20067;-77
2023/03/14 15:15:23;;;;;;;24.38;8.23;;;;;;;;;;10503309;28;20032;-77
2023/03/14 15:20:45;;;;;;;18.98;7.13;;;;;;;;;;10497090;28;20050;-77
2023/03/14 15:26:12;;;;;;;19.48;7.32;;;;;;;;;;10492524;28;20062;-78
2023/03/14 15:31:35;;;;;;;15.68;6.57;;;;;;;;;;10498653;28;20075;-79
2023/03/14 15:36:56;;;;;;;11.52;6.30;;;;;;;;;;10514486;28;20372;-78
2023/03/14 15:42:17;;;;;;;13.93;6.65;;;;;;;;;;10498900;28;20055;-79
2023/03/14 15:47:38;;;;;;;7.60;5.25;;;;;;;;;;10516040;28;20098;-78
2023/03/14 15:52:59;;;;;;;18.42;6.85;;;;;;;;;;10509780;28;20051;-78
2023/03/14 15:58:20;;;;;;;14.95;6.93;;;;;;;;;;10520296;28;20037;-79
2023/03/14 16:03:43;;;;;;;35.45;10.60;;;;;;;;;;10513282;28;20240;-79
2023/03/14 16:09:04;;;;;;;12.50;6.15;;;;;;;;;;10524392;28;20036;-80
2023/03/14 16:14:25;;;;;;;12.60;6.10;;;;;;;;;;10508565;28;20551;-79
2023/03/14 16:19:46;;;;;;;16.35;6.78;;;;;;;;;;10515310;28;20032;-79
2023/03/14 16:25:07;;;;;;;10.63;5.40;;;;;;;;;;10519097;28;20405;-79
2023/03/14 16:30:28;;;;;;;12.68;6.45;;;;;;;;;;10526112;28;20032;-78
2023/03/14 16:36:07;;;;;;;13.52;6.90;;;;;;;;;;10518260;28;20481;-79
2023/03/14 16:41:30;;;;;;;17.58;6.93;;;;;;;;;;10540065;28;20032;-79
2023/03/14 16:46:51;;;;;;;18.42;6.93;;;;;;;;;;10504569;28;20036;-79
2023/03/14 16:52:11;;;;;;;26.90;9.10;;;;;;;;;;10492301;28;20041;-79
2023/03/14 16:57:33;;;;;;;23.23;8.25;;;;;;;;;;10483832;28;20032;-79
2023/03/14 17:02:54;;;;;;;17.67;7.43;;;;;;;;;;10482414;28;20036;-79
2023/03/14 17:08:16;;;;;;;25.02;8.27;;;;;;;;;;10517640;28;20400;-79
2023/03/14 17:13:37;;;;;;;12.25;6.60;;;;;;;;;;10519517;28;20040;-79
2023/03/14 17:18:58;;;;;;;24.17;7.70;;;;;;;;;;10501987;28;20054;-79
2023/03/14 17:24:19;;;;;;;16.02;6.60;;;;;;;;;;10525269;28;20082;-80
2023/03/14 17:29:40;;;;;;;10.43;5.75;;;;;;;;;;10522460;28;20051;-80
2023/03/14 17:35:01;;;;;;;16.67;7.10;;;;;;;;;;10513703;28;20028;-80
2023/03/14 17:40:22;;;;;;;9.75;5.90;;;;;;;;;;10509709;28;20024;-79
2023/03/14 17:45:43;;;;;;;17.23;6.85;;;;;;;;;;10525005;28;20488;-79
2023/03/14 17:51:04;;;;;;;15.45;6.97;;;;;;;;;;10519192;28;20034;-77
2023/03/14 17:56:25;;;;;;;25.70;9.30;;;;;;;;;;10496051;28;20071;-78
2023/03/14 18:01:46;;;;;;;14.45;6.88;;;;;;;;;;10534320;27;20047;-80
2023/03/14 18:07:07;;;;;;;15.65;6.20;;;;;;;;;;10504468;28;20080;-80
2023/03/14 18:12:28;;;;;;;25.55;8.52;;;;;;;;;;10493553;28;20043;-79
2023/03/14 18:17:48;;;;;;;16.27;6.90;;;;;;;;;;10488078;28;20032;-79
2023/03/14 18:23:09;;;;;;;12.43;6.95;;;;;;;;;;10509302;28;20032;-79
2023/03/14 18:28:30;;;;;;;15.82;6.18;;;;;;;;;;10504676;28;20044;-79
2023/03/14 18:33:54;;;;;;;19.83;7.68;;;;;;;;;;10521610;28;20044;-79
2023/03/14 18:39:15;;;;;;;21.35;7.25;;;;;;;;;;10513854;28;20035;-79
2023/03/14 18:44:35;;;;;;;17.35;6.82;;;;;;;;;;10511358;28;20031;-79
2023/03/14 18:49:56;;;;;;;18.65;7.55;;;;;;;;;;10516028;28;20036;-79
2023/03/14 18:55:17;;;;;;;21.50;8.57;;;;;;;;;;10496149;28;20051;-78
2023/03/14 19:00:40;;;;;;;27.50;10.00;;;;;;;;;;10489080;28;20531;-80
2023/03/14 19:06:03;;;;;;;19.63;7.70;;;;;;;;;;10504780;28;20040;-78
2023/03/14 19:11:25;;;;;;;18.05;7.78;;;;;;;;;;10499826;28;20066;-78
2023/03/14 19:16:46;;;;;;;23.27;8.30;;;;;;;;;;10492322;28;20035;-78
2023/03/14 19:22:07;;;;;;;13.05;7.05;;;;;;;;;;10487269;28;20036;-79
2023/03/14 19:27:28;;;;;;;22.60;8.63;;;;;;;;;;10466547;28;20043;-79
2023/03/14 19:32:49;;;;;;;21.88;8.30;;;;;;;;;;10488980;28;20047;-79
2023/03/14 19:38:11;;;;;;;17.65;7.80;;;;;;;;;;10487719;28;20028;-78
2023/03/14 19:43:31;;;;;;;13.45;7.05;;;;;;;;;;10493767;28;20036;-79
2023/03/14 19:48:53;;;;;;;21.40;8.32;;;;;;;;;;10515774;28;20035;-79
2023/03/14 19:54:14;;;;;;;25.67;9.55;;;;;;;;;;10509808;28;20509;-78
2023/03/14 19:59:34;;;;;;;23.65;10.35;;;;;;;;;;10504904;28;20024;-78
2023/03/14 20:04:55;;;;;;;26.67;9.18;;;;;;;;;;10521349;27;20036;-78
2023/03/14 20:10:17;;;;;;;23.17;9.00;;;;;;;;;;10487056;28;20040;-78
2023/03/14 20:15:39;;;;;;;19.67;8.68;;;;;;;;;;10487421;28;20039;-78
2023/03/14 20:21:03;;;;;;;24.40;8.85;;;;;;;;;;10489346;28;20170;-78
2023/03/14 20:26:25;;;;;;;22.42;9.25;;;;;;;;;;10495971;28;20039;-78
2023/03/14 20:31:46;;;;;;;23.40;8.68;;;;;;;;;;10483342;28;20039;-78
2023/03/14 20:37:07;;;;;;;15.20;7.43;;;;;;;;;;10498865;28;20504;-78
2023/03/14 20:42:28;;;;;;;28.45;9.50;;;;;;;;;;10508754;28;20041;-78
2023/03/14 20:47:49;;;;;;;23.48;8.73;;;;;;;;;;10502453;28;20044;-78
2023/03/14 20:53:10;;;;;;;31.85;10.35;;;;;;;;;;10506566;28;20801;-78
2023/03/14 20:58:32;;;;;;;20.48;9.13;;;;;;;;;;10505761;28;20024;-77
2023/03/14 21:03:53;;;;;;;25.23;8.90;;;;;;;;;;10506562;28;20032;-76
2023/03/14 21:09:14;;;;;;;24.08;8.45;;;;;;;;;;10541863;28;20184;-76
2023/03/14 21:14:35;;;;;;;18.85;8.05;;;;;;;;;;10543709;28;20024;-76
2023/03/14 21:19:57;;;;;;;14.55;7.22;;;;;;;;;;10543747;28;20035;-76
2023/03/14 21:25:18;;;;;;;18.45;7.53;;;;;;;;;;10566595;28;20035;-77
2023/03/14 21:30:39;;;;;;;14.52;8.07;;;;;;;;;;10534384;28;20459;-76
2023/03/14 21:36:00;;;;;;;20.10;7.90;;;;;;;;;;10517249;28;20393;-76
2023/03/14 21:41:22;;;;;;;16.73;7.47;;;;;;;;;;10520770;28;20036;-76
2023/03/14 21:46:44;;;;;;;17.40;8.32;;;;;;;;;;10546548;28;20036;-77
2023/03/14 21:52:06;;;;;;;16.00;6.78;;;;;;;;;;10563827;27;20043;-76
2023/03/14 21:57:28;;;;;;;17.58;7.15;;;;;;;;;;10519760;28;20031;-76
2023/03/14 22:02:53;;;;;;;30.90;10.60;;;;;;;;;;10551246;28;20028;-76
2023/03/14 22:08:14;;;;;;;14.30;7.43;;;;;;;;;;10543311;28;20511;-77
2023/03/14 22:13:35;;;;;;;24.38;8.63;;;;;;;;;;10530721;28;20035;-77
2023/03/14 22:18:56;;;;;;;18.92;7.90;;;;;;;;;;10538220;28;20032;-76
2023/03/14 22:24:17;;;;;;;21.00;8.30;;;;;;;;;;10526736;28;20032;-77
2023/03/14 22:29:39;;;;;;;14.85;7.05;;;;;;;;;;10555560;27;20067;-76
2023/03/14 22:35:00;;;;;;;16.05;7.63;;;;;;;;;;10551378;28;20039;-77
2023/03/14 22:40:21;;;;;;;15.93;7.75;;;;;;;;;;10541464;28;20037;-78
2023/03/14 22:45:42;;;;;;;13.40;7.32;;;;;;;;;;10521306;28;20038;-76
2023/03/14 22:51:07;;;;;;;22.10;8.02;;;;;;;;;;10541191;28;20028;-76
2023/03/14 22:56:28;;;;;;;15.75;7.53;;;;;;;;;;10540898;28;20036;-76
2023/03/14 23:01:49;;;;;;;16.10;7.50;;;;;;;;;;10547104;28;20040;-77
2023/03/14 23:07:10;;;;;;;11.80;6.43;;;;;;;;;;10533474;28;20054;-77
2023/03/14 23:12:30;;;;;;;9.27;6.82;;;;;;;;;;10537516;28;20040;-76
2023/03/14 23:17:52;;;;;;;10.77;6.45;;;;;;;;;;10520338;28;20036;-77
2023/03/14 23:23:13;;;;;;;21.77;8.63;;;;;;;;;;10487764;28;20044;-78
2023/03/14 23:28:34;;;;;;;26.55;10.18;;;;;;;;;;10499841;28;20040;-78
2023/03/14 23:33:55;;;;;;;15.55;6.25;;;;;;;;;;10500643;28;20059;-79
2023/03/14 23:39:16;;;;;;;22.45;8.93;;;;;;;;;;10505329;28;20036;-79
2023/03/14 23:44:37;;;;;;;18.20;8.18;;;;;;;;;;10483034;28;20040;-79
2023/03/14 23:49:58;;;;;;;11.88;6.82;;;;;;;;;;10487932;28;20040;-78
2023/03/14 23:55:18;;;;;;;19.20;7.55;;;;;;;;;;10490528;28;20051;-78
